Wetterdaten: aktuell Donnerstag, 02.12.2021 04:35
Datum Zeit Temp. A. Feuchte A. Luftdruck Regen Wind Richtung Richtung Taupunkt Windchill Windben
02.12.2021 04:35 2,3 C 91 % 1000,8 hPa 0,2 l/m 16,4 km/h (3 Bft) W-SW 250 1,0 C -5,0 C 20,9 km/h (4 Bft)
02.12.2021 04:30 2,4 C 91 % 1000,8 hPa 0,2 l/m 19,9 km/h (4 Bft) W-SW 255 1,1 C -6,5 C 25,7 km/h (4 Bft)
02.12.2021 04:25 2,6 C 91 % 1000,8 hPa 0,2 l/m 20,6 km/h (4 Bft) W-SW 248 1,3 C -6,5 C 29,0 km/h (5 Bft)
02.12.2021 04:20 2,6 C 91 % 1000,7 hPa 0,0 l/m 18,7 km/h (3 Bft) W-SW 244 1,3 C -5,7 C 24,1 km/h (4 Bft)
02.12.2021 04:15 2,5 C 91 % 1000,7 hPa 0,0 l/m 16,8 km/h (3 Bft) W-SW 244 1,2 C -4,9 C 24,1 km/h (4 Bft)
02.12.2021 04:10 2,4 C 91 % 1000,7 hPa 0,0 l/m 15,7 km/h (3 Bft) W-SW 249 1,1 C -4,5 C 19,3 km/h (3 Bft)
02.12.2021 04:05 2,4 C 91 % 1000,7 hPa 0,0 l/m 17,9 km/h (3 Bft) W-SW 244 1,1 C -5,6 C 22,5 km/h (4 Bft)
02.12.2021 04:00 2,3 C 91 % 1000,7 hPa 0,0 l/m 17,2 km/h (3 Bft) W-SW 244 1,0 C -5,4 C 22,5 km/h (4 Bft)
02.12.2021 03:55 2,2 C 91 % 1000,7 hPa 0,0 l/m 15,2 km/h (3 Bft) W-SW 258 0,9 C -4,4 C 19,3 km/h (3 Bft)
02.12.2021 03:50 2,2 C 91 % 1000,7 hPa 0,0 l/m 13,8 km/h (3 Bft) W-SW 256 0,9 C -3,6 C 19,3 km/h (3 Bft)
02.12.2021 03:45 2,2 C 91 % 1000,7 hPa 0,0 l/m 11,8 km/h (2 Bft) W-SW 257 0,9 C -2,3 C 17,7 km/h (3 Bft)
02.12.2021 03:40 2,2 C 91 % 1000,7 hPa 0,0 l/m 11,7 km/h (2 Bft) W 271 0,9 C -2,3 C 14,5 km/h (3 Bft)
02.12.2021 03:35 2,2 C 91 % 1000,6 hPa 0,0 l/m 11,2 km/h (2 Bft) W 265 0,9 C -1,9 C 16,1 km/h (3 Bft)
02.12.2021 03:30 2,2 C 91 % 1000,7 hPa 0,0 l/m 12,9 km/h (3 Bft) W-SW 257 0,9 C -3,1 C 17,7 km/h (3 Bft)
02.12.2021 03:25 2,3 C 91 % 1000,6 hPa 0,0 l/m 9,2 km/h (2 Bft) W-SW 247 1,0 C -0,3 C 14,5 km/h (3 Bft)
02.12.2021 03:20 2,3 C 91 % 1000,6 hPa 0,0 l/m 9,1 km/h (2 Bft) SW 229 1,0 C -0,2 C 14,5 km/h (3 Bft)
02.12.2021 03:15 2,4 C 91 % 1000,6 hPa 0,0 l/m 9,2 km/h (2 Bft) W-SW 245 1,1 C -0,2 C 12,9 km/h (3 Bft)
02.12.2021 03:10 2,4 C 91 % 1000,6 hPa 0,0 l/m 10,2 km/h (2 Bft) W-SW 254 1,1 C -1,0 C 14,5 km/h (3 Bft)
02.12.2021 03:05 2,5 C 91 % 1000,5 hPa 0,0 l/m 11,3 km/h (2 Bft) W-SW 253 1,2 C -1,6 C 16,1 km/h (3 Bft)
02.12.2021 03:00 2,5 C 91 % 1000,6 hPa 0,0 l/m 12,2 km/h (2 Bft) W 261 1,2 C -2,3 C 16,1 km/h (3 Bft)
02.12.2021 02:55 2,5 C 91 % 1000,7 hPa 0,0 l/m 11,1 km/h (2 Bft) W-SW 241 1,2 C -1,5 C 14,5 km/h (3 Bft)
02.12.2021 02:50 2,6 C 91 % 1000,8 hPa 0,0 l/m 10,7 km/h (2 Bft) W-SW 245 1,3 C -1,1 C 14,5 km/h (3 Bft)
02.12.2021 02:45 2,6 C 91 % 1000,8 hPa 0,0 l/m 13,0 km/h (3 Bft) W-SW 240 1,3 C -2,7 C 16,1 km/h (3 Bft)
02.12.2021 02:40 2,7 C 91 % 1000,7 hPa 0,0 l/m 11,6 km/h (2 Bft) W-SW 242 1,4 C -1,6 C 16,1 km/h (3 Bft)
02.12.2021 02:35 2,7 C 91 % 1000,8 hPa 0,0 l/m 9,7 km/h (2 Bft) W 261 1,4 C -0,2 C 14,5 km/h (3 Bft)
02.12.2021 02:30 2,8 C 91 % 1000,8 hPa 0,0 l/m 10,0 km/h (2 Bft) W 279 1,5 C -0,4 C 14,5 km/h (3 Bft)
02.12.2021 02:25 2,8 C 91 % 1000,9 hPa 0,0 l/m 9,1 km/h (2 Bft) W 261 1,5 C 0,4 C 14,5 km/h (3 Bft)
02.12.2021 02:20 2,8 C 91 % 1000,9 hPa 0,0 l/m 10,0 km/h (2 Bft) W-SW 254 1,5 C -0,4 C 12,9 km/h (3 Bft)
02.12.2021 02:15 2,8 C 91 % 1000,9 hPa 0,0 l/m 11,9 km/h (2 Bft) W 268 1,5 C -1,7 C 14,5 km/h (3 Bft)
02.12.2021 02:10 2,9 C 91 % 1000,9 hPa 0,0 l/m 13,2 km/h (3 Bft) W-SW 252 1,6 C -2,4 C 17,7 km/h (3 Bft)
02.12.2021 02:05 2,9 C 91 % 1000,9 hPa 0,0 l/m 15,1 km/h (3 Bft) W 259 1,6 C -3,5 C 19,3 km/h (3 Bft)
02.12.2021 02:00 3,0 C 91 % 1000,9 hPa 0,0 l/m 15,8 km/h (3 Bft) W-SW 251 1,7 C -3,8 C 19,3 km/h (3 Bft)
02.12.2021 01:55 3,1 C 91 % 1000,9 hPa 0,0 l/m 16,9 km/h (3 Bft) W-SW 251 1,8 C -4,2 C 20,9 km/h (4 Bft)
02.12.2021 01:50 3,1 C 91 % 1000,9 hPa 0,2 l/m 18,3 km/h (3 Bft) W-SW 248 1,8 C -4,9 C 22,5 km/h (4 Bft)
02.12.2021 01:45 3,2 C 91 % 1000,7 hPa 0,0 l/m 18,3 km/h (3 Bft) W-SW 256 1,9 C -4,8 C 25,7 km/h (4 Bft)
02.12.2021 01:40 3,2 C 91 % 1000,7 hPa 0,0 l/m 16,8 km/h (3 Bft) W-SW 245 1,9 C -4,0 C 22,5 km/h (4 Bft)
02.12.2021 01:35 3,3 C 91 % 1000,7 hPa 0,0 l/m 17,6 km/h (3 Bft) W-SW 252 2,0 C -4,3 C 24,1 km/h (4 Bft)
02.12.2021 01:30 3,3 C 91 % 1000,6 hPa 0,0 l/m 20,6 km/h (4 Bft) W-SW 257 2,0 C -5,6 C 29,0 km/h (5 Bft)
02.12.2021 01:25 3,3 C 91 % 1000,6 hPa 0,0 l/m 17,0 km/h (3 Bft) W-SW 249 2,0 C -4,0 C 22,5 km/h (4 Bft)
02.12.2021 01:20 3,4 C 91 % 1000,6 hPa 0,2 l/m 18,9 km/h (3 Bft) W-SW 242 2,1 C -4,8 C 24,1 km/h (4 Bft)
02.12.2021 01:15 3,4 C 91 % 1000,6 hPa 0,0 l/m 20,0 km/h (4 Bft) W-SW 250 2,1 C -5,2 C 24,1 km/h (4 Bft)
02.12.2021 01:10 3,4 C 91 % 1000,6 hPa 0,2 l/m 19,6 km/h (3 Bft) W-SW 255 2,1 C -5,1 C 24,1 km/h (4 Bft)
02.12.2021 01:05 3,5 C 91 % 1000,5 hPa 0,0 l/m 21,6 km/h (4 Bft) W-SW 250 2,2 C -5,8 C 30,6 km/h (5 Bft)
02.12.2021 01:00 3,6 C 91 % 1000,5 hPa 0,0 l/m 19,9 km/h (4 Bft) W-SW 238 2,3 C -4,9 C 29,0 km/h (5 Bft)
02.12.2021 00:55 3,6 C 91 % 1000,5 hPa 0,0 l/m 18,9 km/h (3 Bft) W-SW 251 2,3 C -4,5 C 24,1 km/h (4 Bft)
02.12.2021 00:50 3,7 C 90 % 1000,5 hPa 0,2 l/m 16,2 km/h (3 Bft) W-SW 237 2,2 C -3,1 C 20,9 km/h (4 Bft)
02.12.2021 00:45 3,8 C 90 % 1000,5 hPa 0,0 l/m 17,4 km/h (3 Bft) W-SW 253 2,3 C -3,6 C 27,4 km/h (5 Bft)
02.12.2021 00:40 3,9 C 90 % 1000,6 hPa 0,4 l/m 22,9 km/h (4 Bft) W-SW 244 2,4 C -5,7 C 30,6 km/h (5 Bft)
02.12.2021 00:35 4,1 C 90 % 1000,6 hPa 0,2 l/m 25,5 km/h (4 Bft) W 261 2,6 C -6,3 C 35,4 km/h (5 Bft)
02.12.2021 00:30 4,2 C 90 % 1000,5 hPa 0,0 l/m 18,7 km/h (3 Bft) W 259 2,7 C -3,7 C 25,7 km/h (4 Bft)
02.12.2021 00:25 4,3 C 90 % 1000,4 hPa 0,0 l/m 20,9 km/h (4 Bft) SW 232 2,8 C -4,4 C 32,2 km/h (5 Bft)
02.12.2021 00:20 4,3 C 90 % 1000,3 hPa 0,2 l/m 22,0 km/h (4 Bft) W-SW 243 2,8 C -4,9 C 27,4 km/h (5 Bft)
02.12.2021 00:15 4,4 C 89 % 1000,4 hPa 0,0 l/m 24,7 km/h (4 Bft) W-SW 240 2,7 C -5,7 C 32,2 km/h (5 Bft)
02.12.2021 00:10 4,6 C 89 % 1000,4 hPa 0,0 l/m 20,3 km/h (4 Bft) SW 223 2,9 C -3,8 C 30,6 km/h (5 Bft)
02.12.2021 00:05 4,6 C 89 % 1000,4 hPa 0,0 l/m 19,3 km/h (3 Bft) W-SW 250 2,9 C -3,4 C 25,7 km/h (4 Bft)
02.12.2021 00:00 4,7 C 89 % 1000,5 hPa 0,0 l/m 22,0 km/h (4 Bft) W-SW 244 3,0 C -4,3 C 27,4 km/h (5 Bft)
01.12.2021 23:55 4,7 C 89 % 1000,5 hPa 0,0 l/m 17,8 km/h (3 Bft) SW 225 3,0 C -2,6 C 22,5 km/h (4 Bft)
01.12.2021 23:50 4,7 C 88 % 1000,5 hPa 0,0 l/m 21,0 km/h (4 Bft) W-SW 242 2,9 C -4,0 C 29,0 km/h (5 Bft)
01.12.2021 23:45 4,8 C 88 % 1000,5 hPa 0,0 l/m 22,8 km/h (4 Bft) SW 233 3,0 C -4,5 C 30,6 km/h (5 Bft)
01.12.2021 23:40 4,7 C 88 % 1000,5 hPa 0,0 l/m 27,1 km/h (5 Bft) W-SW 243 2,9 C -6,0 C 40,2 km/h (6 Bft)
01.12.2021 23:35 4,7 C 88 % 1000,5 hPa 0,0 l/m 28,4 km/h (5 Bft) SW 236 2,9 C -6,4 C 37,0 km/h (5 Bft)
01.12.2021 23:30 4,6 C 89 % 1000,5 hPa 0,0 l/m 22,6 km/h (4 Bft) SW 227 2,9 C -4,7 C 32,2 km/h (5 Bft)
01.12.2021 23:25 4,6 C 89 % 1000,5 hPa 0,0 l/m 15,2 km/h (3 Bft) SW 225 2,9 C -1,5 C 24,1 km/h (4 Bft)
01.12.2021 23:20 4,6 C 89 % 1000,6 hPa 0,0 l/m 13,4 km/h (3 Bft) S-SW 208 2,9 C -0,5 C 19,3 km/h (3 Bft)
01.12.2021 23:15 4,6 C 89 % 1000,5 hPa 0,0 l/m 13,4 km/h (3 Bft) SW 214 2,9 C -0,5 C 25,7 km/h (4 Bft)
01.12.2021 23:10 4,6 C 89 % 1000,5 hPa 0,0 l/m 12,9 km/h (3 Bft) SW 219 2,9 C -0,2 C 20,9 km/h (4 Bft)
01.12.2021 23:05 4,6 C 90 % 1000,5 hPa 0,0 l/m 16,0 km/h (3 Bft) S-SW 193 3,1 C -1,9 C 22,5 km/h (4 Bft)
01.12.2021 23:00 4,6 C 90 % 1000,5 hPa 0,0 l/m 17,4 km/h (3 Bft) SW 227 3,1 C -2,6 C 24,1 km/h (4 Bft)
01.12.2021 22:55 4,6 C 90 % 1000,5 hPa 0,0 l/m 19,4 km/h (3 Bft) SW 214 3,1 C -3,4 C 25,7 km/h (4 Bft)
01.12.2021 22:50 4,6 C 90 % 1000,5 hPa 0,0 l/m 17,3 km/h (3 Bft) SW 229 3,1 C -2,5 C 29,0 km/h (5 Bft)
01.12.2021 22:45 4,6 C 90 % 1000,6 hPa 0,0 l/m 17,0 km/h (3 Bft) SW 228 3,1 C -2,4 C 22,5 km/h (4 Bft)
01.12.2021 22:40 4,6 C 90 % 1000,6 hPa 0,0 l/m 21,2 km/h (4 Bft) SW 227 3,1 C -4,2 C 29,0 km/h (5 Bft)
01.12.2021 22:35 4,6 C 90 % 1000,6 hPa 0,0 l/m 19,5 km/h (3 Bft) SW 220 3,1 C -3,5 C 24,1 km/h (4 Bft)
01.12.2021 22:30 4,6 C 90 % 1000,5 hPa 0,0 l/m 16,0 km/h (3 Bft) S-SW 210 3,1 C -1,9 C 27,4 km/h (5 Bft)
01.12.2021 22:25 4,6 C 90 % 1000,6 hPa 0,0 l/m 14,3 km/h (3 Bft) S-SW 198 3,1 C -1,0 C 17,7 km/h (3 Bft)
01.12.2021 22:20 4,6 C 90 % 1000,5 hPa 0,0 l/m 15,9 km/h (3 Bft) S-SW 207 3,1 C -1,9 C 22,5 km/h (4 Bft)
01.12.2021 22:15 4,6 C 91 % 1000,6 hPa 0,0 l/m 14,5 km/h (3 Bft) S 188 3,3 C -1,1 C 20,9 km/h (4 Bft)
01.12.2021 22:10 4,5 C 91 % 1000,5 hPa 0,0 l/m 15,9 km/h (3 Bft) S 190 3,2 C -2,0 C 29,0 km/h (5 Bft)
01.12.2021 22:05 4,5 C 91 % 1000,6 hPa 0,0 l/m 12,9 km/h (3 Bft) SW 217 3,2 C -0,4 C 16,1 km/h (3 Bft)
01.12.2021 22:00 4,6 C 91 % 1000,6 hPa 0,0 l/m 11,6 km/h (2 Bft) S-SW 202 3,3 C 0,5 C 17,7 km/h (3 Bft)
01.12.2021 21:55 4,6 C 91 % 1000,6 hPa 0,0 l/m 13,9 km/h (3 Bft) SW 221 3,3 C -0,8 C 19,3 km/h (3 Bft)
01.12.2021 21:50 4,6 C 91 % 1000,6 hPa 0,0 l/m 14,8 km/h (3 Bft) S-SW 213 3,3 C -1,3 C 20,9 km/h (4 Bft)
01.12.2021 21:45 4,6 C 91 % 1000,7 hPa 0,0 l/m 13,2 km/h (3 Bft) SW 229 3,3 C -0,4 C 20,9 km/h (4 Bft)
01.12.2021 21:40 4,5 C 91 % 1000,7 hPa 0,0 l/m 13,5 km/h (3 Bft) SW 219 3,2 C -0,7 C 17,7 km/h (3 Bft)
01.12.2021 21:35 4,4 C 91 % 1000,7 hPa 0,0 l/m 12,4 km/h (2 Bft) SW 214 3,1 C -0,2 C 17,7 km/h (3 Bft)
01.12.2021 21:30 4,4 C 91 % 1000,7 hPa 0,0 l/m 11,4 km/h (2 Bft) S-SW 202 3,1 C 0,4 C 14,5 km/h (3 Bft)
01.12.2021 21:25 4,4 C 91 % 1000,6 hPa 0,0 l/m 13,2 km/h (3 Bft) SW 227 3,1 C -0,7 C 19,3 km/h (3 Bft)
01.12.2021 21:20 4,4 C 91 % 1000,6 hPa 0,0 l/m 14,7 km/h (3 Bft) SW 215 3,1 C -1,5 C 19,3 km/h (3 Bft)
01.12.2021 21:15 4,4 C 91 % 1000,5 hPa 0,0 l/m 16,0 km/h (3 Bft) SW 221 3,1 C -2,2 C 20,9 km/h (4 Bft)
01.12.2021 21:10 4,4 C 91 % 1000,6 hPa 0,0 l/m 15,2 km/h (3 Bft) SW 224 3,1 C -1,8 C 22,5 km/h (4 Bft)
01.12.2021 21:05 4,6 C 91 % 1000,5 hPa 0,0 l/m 15,5 km/h (3 Bft) SW 231 3,3 C -1,7 C 22,5 km/h (4 Bft)
01.12.2021 21:00 4,7 C 91 % 1000,6 hPa 0,0 l/m 17,6 km/h (3 Bft) SW 233 3,4 C -2,5 C 22,5 km/h (4 Bft)
01.12.2021 20:55 4,8 C 91 % 1000,7 hPa 0,2 l/m 18,9 km/h (3 Bft) W-SW 249 3,5 C -3,0 C 24,1 km/h (4 Bft)
01.12.2021 20:50 4,8 C 91 % 1000,6 hPa 0,0 l/m 17,9 km/h (3 Bft) SW 236 3,5 C -2,5 C 22,5 km/h (4 Bft)
01.12.2021 20:45 4,8 C 91 % 1000,5 hPa 0,0 l/m 15,3 km/h (3 Bft) SW 236 3,5 C -1,3 C 20,9 km/h (4 Bft)
01.12.2021 20:40 4,8 C 91 % 1000,4 hPa 0,0 l/m 21,6 km/h (4 Bft) SW 228 3,5 C -4,0 C 29,0 km/h (5 Bft)
01.12.2021 20:35 4,8 C 91 % 1000,4 hPa 0,0 l/m 21,6 km/h (4 Bft) SW 234 3,5 C -4,0 C 30,6 km/h (5 Bft)
01.12.2021 20:30 4,8 C 91 % 1000,5 hPa 0,0 l/m 21,3 km/h (4 Bft) W-SW 242 3,5 C -3,9 C 27,4 km/h (5 Bft)
01.12.2021 20:25 4,8 C 91 % 1000,4 hPa 0,0 l/m 22,9 km/h (4 Bft) W-SW 243 3,5 C -4,5 C 30,6 km/h (5 Bft)
01.12.2021 20:20 4,8 C 91 % 1000,4 hPa 0,0 l/m 22,5 km/h (4 Bft) W-SW 242 3,5 C -4,4 C 30,6 km/h (5 Bft)
01.12.2021 20:15 4,8 C 91 % 1000,3 hPa 0,0 l/m 23,8 km/h (4 Bft) SW 234 3,5 C -4,8 C 29,0 km/h (5 Bft)
01.12.2021 20:10 4,8 C 91 % 1000,3 hPa 0,0 l/m 24,3 km/h (4 Bft) SW 227 3,5 C -5,0 C 33,8 km/h (5 Bft)
01.12.2021 20:05 4,8 C 91 % 1000,2 hPa 0,0 l/m 24,0 km/h (4 Bft) SW 221 3,5 C -4,9 C 32,2 km/h (5 Bft)
01.12.2021 20:00 4,7 C 91 % 1000,1 hPa 0,2 l/m 19,3 km/h (3 Bft) S-SW 209 3,4 C -3,3 C 33,8 km/h (5 Bft)
01.12.2021 19:55 4,7 C 91 % 1000,0 hPa 0,0 l/m 17,5 km/h (3 Bft) S-SW 210 3,4 C -2,5 C 25,7 km/h (4 Bft)
01.12.2021 19:50 4,7 C 91 % 1000,0 hPa 0,0 l/m 15,5 km/h (3 Bft) S-SW 204 3,4 C -1,5 C 22,5 km/h (4 Bft)
01.12.2021 19:45 4,7 C 91 % 1000,0 hPa 0,0 l/m 21,6 km/h (4 Bft) S-SW 210 3,4 C -4,2 C 27,4 km/h (5 Bft)
01.12.2021 19:40 4,7 C 91 % 1000,0 hPa 0,0 l/m 21,4 km/h (4 Bft) S-SW 213 3,4 C -4,1 C 29,0 km/h (5 Bft)
01.12.2021 19:35 4,7 C 91 % 1000,1 hPa 0,0 l/m 18,4 km/h (3 Bft) SW 236 3,4 C -2,9 C 25,7 km/h (4 Bft)
01.12.2021 19:30 4,8 C 91 % 1000,0 hPa 0,0 l/m 16,9 km/h (3 Bft) SW 225 3,5 C -2,1 C 22,5 km/h (4 Bft)
01.12.2021 19:25 4,8 C 91 % 999,8 hPa 0,0 l/m 16,7 km/h (3 Bft) SW 225 3,5 C -2,0 C 25,7 km/h (4 Bft)
01.12.2021 19:20 4,9 C 91 % 999,8 hPa 0,0 l/m 16,4 km/h (3 Bft) SW 219 3,6 C -1,7 C 22,5 km/h (4 Bft)
01.12.2021 19:15 4,9 C 91 % 999,6 hPa 0,0 l/m 15,9 km/h (3 Bft) S-SW 207 3,6 C -1,5 C 24,1 km/h (4 Bft)
01.12.2021 19:10 4,9 C 91 % 999,5 hPa 0,2 l/m 16,2 km/h (3 Bft) S-SW 207 3,6 C -1,6 C 24,1 km/h (4 Bft)
01.12.2021 19:05 4,9 C 91 % 999,5 hPa 0,0 l/m 15,4 km/h (3 Bft) SW 217 3,6 C -1,2 C 22,5 km/h (4 Bft)
01.12.2021 19:00 5,0 C 90 % 999,4 hPa 0,0 l/m 16,7 km/h (3 Bft) S-SW 213 3,5 C -1,8 C 24,1 km/h (4 Bft)
01.12.2021 18:55 5,1 C 90 % 999,5 hPa 0,0 l/m 17,6 km/h (3 Bft) S-SW 211 3,6 C -2,0 C 25,7 km/h (4 Bft)
01.12.2021 18:50 5,1 C 90 % 999,4 hPa 0,0 l/m 18,2 km/h (3 Bft) S-SW 209 3,6 C -2,3 C 29,0 km/h (5 Bft)
01.12.2021 18:45 5,2 C 90 % 999,4 hPa 0,0 l/m 16,5 km/h (3 Bft) SW 217 3,7 C -1,4 C 27,4 km/h (5 Bft)
01.12.2021 18:40 5,1 C 90 % 999,4 hPa 0,0 l/m 17,0 km/h (3 Bft) S-SW 194 3,6 C -1,8 C 27,4 km/h (5 Bft)
01.12.2021 18:35 5,2 C 90 % 999,4 hPa 0,0 l/m 14,5 km/h (3 Bft) S-SW 202 3,7 C -0,4 C 22,5 km/h (4 Bft)
01.12.2021 18:30 5,2 C 90 % 999,4 hPa 0,0 l/m 15,0 km/h (3 Bft) S-SW 194 3,7 C -0,7 C 22,5 km/h (4 Bft)
01.12.2021 18:25 5,3 C 90 % 999,3 hPa 0,0 l/m 14,2 km/h (3 Bft) SW 216 3,8 C -0,1 C 20,9 km/h (4 Bft)
01.12.2021 18:20 5,4 C 90 % 999,4 hPa 0,0 l/m 14,4 km/h (3 Bft) SW 216 3,9 C -0,1 C 19,3 km/h (3 Bft)
01.12.2021 18:15 5,4 C 89 % 999,3 hPa 0,0 l/m 17,4 km/h (3 Bft) SW 219 3,7 C -1,6 C 29,0 km/h (5 Bft)
01.12.2021 18:10 5,5 C 89 % 999,3 hPa 0,0 l/m 16,8 km/h (3 Bft) S-SW 209 3,8 C -1,2 C 25,7 km/h (4 Bft)
01.12.2021 18:05 5,5 C 89 % 999,1 hPa 0,0 l/m 14,3 km/h (3 Bft) S-SW 205 3,8 C 0,0 C 19,3 km/h (3 Bft)
01.12.2021 18:00 5,5 C 89 % 999,0 hPa 0,0 l/m 16,0 km/h (3 Bft) S-SW 208 3,8 C -0,8 C 22,5 km/h (4 Bft)
01.12.2021 17:55 5,5 C 89 % 999,2 hPa 0,0 l/m 17,6 km/h (3 Bft) SW 230 3,8 C -1,5 C 29,0 km/h (5 Bft)
01.12.2021 17:50 5,6 C 89 % 999,1 hPa 0,0 l/m 16,8 km/h (3 Bft) S 183 3,9 C -1,1 C 22,5 km/h (4 Bft)
01.12.2021 17:45 5,6 C 89 % 999,1 hPa 0,0 l/m 14,2 km/h (3 Bft) SW 215 3,9 C 0,2 C 24,1 km/h (4 Bft)
01.12.2021 17:40 5,6 C 89 % 999,1 hPa 0,0 l/m 17,5 km/h (3 Bft) SW 226 3,9 C -1,4 C 22,5 km/h (4 Bft)
01.12.2021 17:35 5,6 C 89 % 998,9 hPa 0,0 l/m 15,6 km/h (3 Bft) SW 214 3,9 C -0,5 C 22,5 km/h (4 Bft)
01.12.2021 17:30 5,6 C 89 % 998,8 hPa 0,0 l/m 16,0 km/h (3 Bft) SW 221 3,9 C -0,7 C 22,5 km/h (4 Bft)
01.12.2021 17:25 5,6 C 89 % 998,8 hPa 0,0 l/m 15,6 km/h (3 Bft) S-SW 201 3,9 C -0,5 C 22,5 km/h (4 Bft)
01.12.2021 17:20 5,5 C 89 % 998,7 hPa 0,0 l/m 13,3 km/h (3 Bft) S-SW 205 3,8 C 0,6 C 20,9 km/h (4 Bft)
01.12.2021 17:15 5,6 C 89 % 998,8 hPa 0,0 l/m 13,5 km/h (3 Bft) S-SW 207 3,9 C 0,6 C 17,7 km/h (3 Bft)
01.12.2021 17:10 5,5 C 89 % 998,8 hPa 0,0 l/m 13,4 km/h (3 Bft) S-SW 205 3,8 C 0,5 C 22,5 km/h (4 Bft)
01.12.2021 17:05 5,5 C 89 % 998,8 hPa 0,0 l/m 13,0 km/h (3 Bft) S-SW 209 3,8 C 0,7 C 19,3 km/h (3 Bft)
01.12.2021 17:00 5,4 C 90 % 998,8 hPa 0,0 l/m 11,0 km/h (2 Bft) S-SW 200 3,9 C 1,8 C 16,1 km/h (3 Bft)
01.12.2021 16:55 5,3 C 90 % 998,8 hPa 0,0 l/m 8,2 km/h (2 Bft) SW 219 3,8 C 3,8 C 16,1 km/h (3 Bft)
01.12.2021 16:50 5,4 C 90 % 998,8 hPa 0,0 l/m 10,5 km/h (2 Bft) S-SW 211 3,9 C 2,2 C 16,1 km/h (3 Bft)
01.12.2021 16:45 5,4 C 90 % 998,8 hPa 0,0 l/m 13,5 km/h (3 Bft) S-SW 213 3,9 C 0,4 C 17,7 km/h (3 Bft)
01.12.2021 16:40 5,4 C 90 % 998,9 hPa 0,0 l/m 14,1 km/h (3 Bft) SW 215 3,9 C 0,0 C 24,1 km/h (4 Bft)
01.12.2021 16:35 5,3 C 90 % 998,9 hPa 0,0 l/m 13,1 km/h (3 Bft) SW 217 3,8 C 0,5 C 20,9 km/h (4 Bft)
01.12.2021 16:30 5,4 C 90 % 998,8 hPa 0,0 l/m 14,0 km/h (3 Bft) SW 221 3,9 C 0,1 C 19,3 km/h (3 Bft)
01.12.2021 16:25 5,5 C 90 % 998,9 hPa 0,0 l/m 13,9 km/h (3 Bft) S-SW 205 4,0 C 0,3 C 20,9 km/h (4 Bft)
01.12.2021 16:20 5,5 C 90 % 998,9 hPa 0,0 l/m 15,7 km/h (3 Bft) SW 215 4,0 C -0,7 C 22,5 km/h (4 Bft)
01.12.2021 16:15 5,5 C 90 % 998,9 hPa 0,0 l/m 16,3 km/h (3 Bft) S 186 4,0 C -0,9 C 24,1 km/h (4 Bft)
01.12.2021 16:10 5,4 C 90 % 999,1 hPa 0,0 l/m 15,6 km/h (3 Bft) S-SW 202 3,9 C -0,7 C 20,9 km/h (4 Bft)
01.12.2021 16:05 5,5 C 90 % 999,0 hPa 0,0 l/m 16,6 km/h (3 Bft) S-SW 205 4,0 C -1,1 C 22,5 km/h (4 Bft)
01.12.2021 16:00 5,4 C 90 % 998,9 hPa 0,0 l/m 15,7 km/h (3 Bft) S 190 3,9 C -0,8 C 27,4 km/h (5 Bft)
01.12.2021 15:55 5,4 C 90 % 999,0 hPa 0,0 l/m 15,1 km/h (3 Bft) S-SW 202 3,9 C -0,5 C 20,9 km/h (4 Bft)
01.12.2021 15:50 5,4 C 90 % 999,0 hPa 0,0 l/m 14,1 km/h (3 Bft) S-SW 213 3,9 C 0,0 C 22,5 km/h (4 Bft)
01.12.2021 15:45 5,4 C 90 % 999,1 hPa 0,0 l/m 12,5 km/h (2 Bft) S-SW 194 3,9 C 0,9 C 20,9 km/h (4 Bft)
01.12.2021 15:40 5,4 C 90 % 999,1 hPa 0,0 l/m 14,9 km/h (3 Bft) S-SW 203 3,9 C -0,4 C 25,7 km/h (4 Bft)
01.12.2021 15:35 5,4 C 89 % 999,0 hPa 0,0 l/m 15,6 km/h (3 Bft) S-SW 201 3,7 C -0,7 C 25,7 km/h (4 Bft)
01.12.2021 15:30 5,4 C 89 % 999,2 hPa 0,0 l/m 14,0 km/h (3 Bft) S-SW 209 3,7 C 0,1 C 22,5 km/h (4 Bft)
01.12.2021 15:25 5,4 C 89 % 999,3 hPa 0,0 l/m 14,9 km/h (3 Bft) S-SW 198 3,7 C -0,4 C 20,9 km/h (4 Bft)
01.12.2021 15:20 5,4 C 89 % 999,2 hPa 0,0 l/m 16,0 km/h (3 Bft) S-SW 197 3,7 C -0,9 C 22,5 km/h (4 Bft)
01.12.2021 15:15 5,4 C 89 % 999,3 hPa 0,0 l/m 15,9 km/h (3 Bft) S-SW 198 3,7 C -0,9 C 30,6 km/h (5 Bft)
01.12.2021 15:10 5,4 C 89 % 999,2 hPa 0,0 l/m 15,0 km/h (3 Bft) S-SW 193 3,7 C -0,4 C 22,5 km/h (4 Bft)
01.12.2021 15:05 5,4 C 88 % 999,3 hPa 0,0 l/m 16,6 km/h (3 Bft) S 183 3,6 C -1,2 C 27,4 km/h (5 Bft)
01.12.2021 15:00 5,4 C 88 % 999,3 hPa 0,0 l/m 15,9 km/h (3 Bft) S 175 3,6 C -0,9 C 25,7 km/h (4 Bft)
01.12.2021 14:55 5,5 C 88 % 999,5 hPa 0,0 l/m 15,4 km/h (3 Bft) S-SW 207 3,7 C -0,5 C 25,7 km/h (4 Bft)
01.12.2021 14:50 5,5 C 88 % 999,6 hPa 0,0 l/m 16,5 km/h (3 Bft) S-SW 204 3,7 C -1,0 C 25,7 km/h (4 Bft)
01.12.2021 14:45 5,6 C 88 % 999,7 hPa 0,0 l/m 15,6 km/h (3 Bft) S 186 3,8 C -0,5 C 25,7 km/h (4 Bft)
01.12.2021 14:40 5,6 C 87 % 999,9 hPa 0,0 l/m 16,4 km/h (3 Bft) S 174 3,6 C -0,9 C 27,4 km/h (5 Bft)
01.12.2021 14:35 5,7 C 87 % 999,9 hPa 0,0 l/m 15,9 km/h (3 Bft) S 186 3,7 C -0,5 C 25,7 km/h (4 Bft)
01.12.2021 14:30 5,7 C 87 % 1000,0 hPa 0,0 l/m 17,3 km/h (3 Bft) S-SW 202 3,7 C -1,2 C 25,7 km/h (4 Bft)
01.12.2021 14:25 5,7 C 87 % 1000,1 hPa 0,0 l/m 16,9 km/h (3 Bft) S-SW 193 3,7 C -1,0 C 30,6 km/h (5 Bft)
01.12.2021 14:20 5,8 C 87 % 1000,2 hPa 0,0 l/m 19,3 km/h (3 Bft) S-SW 203 3,8 C -1,9 C 32,2 km/h (5 Bft)
01.12.2021 14:15 5,8 C 87 % 1000,2 hPa 0,0 l/m 18,8 km/h (3 Bft) S-SW 209 3,8 C -1,7 C 30,6 km/h (5 Bft)
01.12.2021 14:10 5,7 C 88 % 1000,3 hPa 0,0 l/m 17,5 km/h (3 Bft) S-SW 192 3,9 C -1,2 C 29,0 km/h (5 Bft)
01.12.2021 14:05 5,6 C 88 % 1000,4 hPa 0,0 l/m 17,7 km/h (3 Bft) S-SW 204 3,8 C -1,5 C 30,6 km/h (5 Bft)
01.12.2021 14:00 5,6 C 88 % 1000,5 hPa 0,0 l/m 15,6 km/h (3 Bft) S-SW 201 3,8 C -0,5 C 22,5 km/h (4 Bft)
01.12.2021 13:55 5,6 C 88 % 1000,6 hPa 0,0 l/m 19,1 km/h (3 Bft) S-SW 199 3,8 C -2,0 C 30,6 km/h (5 Bft)
01.12.2021 13:50 5,6 C 88 % 1000,7 hPa 0,0 l/m 20,0 km/h (4 Bft) S-SW 208 3,8 C -2,4 C 27,4 km/h (5 Bft)
01.12.2021 13:45 5,5 C 88 % 1000,7 hPa 0,0 l/m 19,7 km/h (3 Bft) S 169 3,7 C -2,4 C 27,4 km/h (5 Bft)
01.12.2021 13:40 5,3 C 88 % 1000,8 hPa 0,0 l/m 16,8 km/h (3 Bft) S 183 3,5 C -1,4 C 29,0 km/h (5 Bft)
01.12.2021 13:35 5,2 C 88 % 1000,9 hPa 0,0 l/m 17,3 km/h (3 Bft) S 182 3,4 C -1,8 C 27,4 km/h (5 Bft)
01.12.2021 13:30 5,1 C 88 % 1001,0 hPa 0,0 l/m 15,7 km/h (3 Bft) S 180 3,3 C -1,2 C 25,7 km/h (4 Bft)
01.12.2021 13:25 5,1 C 89 % 1001,2 hPa 0,0 l/m 16,8 km/h (3 Bft) S 180 3,4 C -1,7 C 27,4 km/h (5 Bft)
01.12.2021 13:20 5,0 C 88 % 1001,3 hPa 0,0 l/m 17,0 km/h (3 Bft) S 190 3,2 C -1,9 C 27,4 km/h (5 Bft)
01.12.2021 13:15 4,9 C 88 % 1001,5 hPa 0,0 l/m 17,2 km/h (3 Bft) S-SW 202 3,1 C -2,1 C 24,1 km/h (4 Bft)
01.12.2021 13:10 4,9 C 88 % 1001,7 hPa 0,0 l/m 15,5 km/h (3 Bft) S 191 3,1 C -1,3 C 24,1 km/h (4 Bft)
01.12.2021 13:05 4,8 C 88 % 1001,7 hPa 0,0 l/m 16,2 km/h (3 Bft) S-SW 207 3,0 C -1,8 C 25,7 km/h (4 Bft)
01.12.2021 13:00 4,8 C 88 % 1001,8 hPa 0,0 l/m 16,9 km/h (3 Bft) S-SW 212 3,0 C -2,1 C 27,4 km/h (5 Bft)
01.12.2021 12:55 4,8 C 88 % 1001,9 hPa 0,0 l/m 18,4 km/h (3 Bft) S-SW 192 3,0 C -2,8 C 25,7 km/h (4 Bft)
01.12.2021 12:50 4,7 C 88 % 1001,9 hPa 0,0 l/m 17,3 km/h (3 Bft) S-SW 204 2,9 C -2,4 C 25,7 km/h (4 Bft)
01.12.2021 12:45 4,6 C 88 % 1002,1 hPa 0,0 l/m 17,4 km/h (3 Bft) S-SW 194 2,8 C -2,6 C 25,7 km/h (4 Bft)
01.12.2021 12:40 4,6 C 88 % 1002,2 hPa 0,0 l/m 17,6 km/h (3 Bft) S-SW 213 2,8 C -2,7 C 22,5 km/h (4 Bft)
01.12.2021 12:35 4,6 C 88 % 1002,3 hPa 0,0 l/m 20,7 km/h (4 Bft) S 187 2,8 C -4,0 C 33,8 km/h (5 Bft)
01.12.2021 12:30 4,6 C 88 % 1002,2 hPa 0,0 l/m 22,9 km/h (4 Bft) S-SW 196 2,8 C -4,8 C 32,2 km/h (5 Bft)
01.12.2021 12:25 4,5 C 88 % 1002,5 hPa 0,0 l/m 26,7 km/h (4 Bft) SW 217 2,7 C -6,2 C 29,0 km/h (5 Bft)
01.12.2021 12:20 4,5 C 88 % 1002,5 hPa 0,0 l/m 20,6 km/h (4 Bft) S-SW 213 2,7 C -4,1 C 30,6 km/h (5 Bft)
01.12.2021 12:15 4,6 C 88 % 1002,6 hPa 0,0 l/m 22,9 km/h (4 Bft) S 180 2,8 C -4,8 C 37,0 km/h (5 Bft)
01.12.2021 12:10 4,6 C 89 % 1002,6 hPa 0,0 l/m 22,4 km/h (4 Bft) S-SW 200 2,9 C -4,6 C 33,8 km/h (5 Bft)
01.12.2021 12:05 4,4 C 89 % 1002,7 hPa 0,0 l/m 18,9 km/h (3 Bft) S-SW 192 2,7 C -3,5 C 27,4 km/h (5 Bft)
01.12.2021 12:00 4,4 C 89 % 1002,6 hPa 0,0 l/m 18,9 km/h (3 Bft) S 178 2,7 C -3,5 C 27,4 km/h (5 Bft)
01.12.2021 11:55 4,4 C 89 % 1002,9 hPa 0,0 l/m 17,5 km/h (3 Bft) S 190 2,7 C -2,9 C 29,0 km/h (5 Bft)
01.12.2021 11:50 4,4 C 89 % 1003,0 hPa 0,0 l/m 18,0 km/h (3 Bft) S 190 2,7 C -3,1 C 30,6 km/h (5 Bft)
01.12.2021 11:45 4,4 C 89 % 1003,2 hPa 0,0 l/m 19,7 km/h (3 Bft) S 184 2,7 C -3,8 C 32,2 km/h (5 Bft)
01.12.2021 11:40 4,3 C 89 % 1003,4 hPa 0,0 l/m 21,2 km/h (4 Bft) S-SW 194 2,7 C -4,6 C 29,0 km/h (5 Bft)
01.12.2021 11:35 4,3 C 89 % 1003,4 hPa 0,0 l/m 17,4 km/h (3 Bft) S 174 2,7 C -3,0 C 25,7 km/h (4 Bft)
01.12.2021 11:30 4,3 C 89 % 1003,6 hPa 0,0 l/m 16,2 km/h (3 Bft) S-SO 164 2,7 C -2,4 C 29,0 km/h (5 Bft)
01.12.2021 11:25 4,2 C 89 % 1003,9 hPa 0,0 l/m 15,5 km/h (3 Bft) S-SO 147 2,6 C -2,2 C 27,4 km/h (5 Bft)
01.12.2021 11:20 4,1 C 90 % 1004,0 hPa 0,0 l/m 17,4 km/h (3 Bft) S 186 2,6 C -3,2 C 27,4 km/h (5 Bft)
01.12.2021 11:15 4,1 C 90 % 1004,1 hPa 0,0 l/m 18,5 km/h (3 Bft) S-SO 157 2,6 C -3,7 C 27,4 km/h (5 Bft)
01.12.2021 11:10 4,0 C 90 % 1004,4 hPa 0,0 l/m 17,0 km/h (3 Bft) S-SO 150 2,5 C -3,1 C 27,4 km/h (5 Bft)
01.12.2021 11:05 3,8 C 90 % 1004,4 hPa 0,0 l/m 15,5 km/h (3 Bft) S 187 2,3 C -2,6 C 27,4 km/h (5 Bft)
01.12.2021 11:00 3,7 C 90 % 1004,6 hPa 0,0 l/m 13,0 km/h (3 Bft) S-SO 152 2,2 C -1,4 C 20,9 km/h (4 Bft)
01.12.2021 10:55 3,7 C 90 % 1004,7 hPa 0,0 l/m 15,1 km/h (3 Bft) S-SO 163 2,2 C -2,6 C 22,5 km/h (4 Bft)
01.12.2021 10:50 3,8 C 90 % 1004,8 hPa 0,0 l/m 15,4 km/h (3 Bft) S-SO 167 2,3 C -2,6 C 24,1 km/h (4 Bft)
01.12.2021 10:45 3,8 C 89 % 1005,1 hPa 0,0 l/m 14,6 km/h (3 Bft) S-SO 157 2,2 C -2,2 C 25,7 km/h (4 Bft)
01.12.2021 10:40 3,9 C 89 % 1005,2 hPa 0,0 l/m 16,5 km/h (3 Bft) S 179 2,3 C -3,0 C 29,0 km/h (5 Bft)
01.12.2021 10:35 3,8 C 90 % 1005,3 hPa 0,0 l/m 11,6 km/h (2 Bft) S-SW 192 2,3 C -0,4 C 22,5 km/h (4 Bft)
01.12.2021 10:30 3,8 C 89 % 1005,4 hPa 0,0 l/m 14,7 km/h (3 Bft) S 188 2,2 C -2,2 C 25,7 km/h (4 Bft)
01.12.2021 10:25 3,8 C 89 % 1005,5 hPa 0,0 l/m 17,0 km/h (3 Bft) S 182 2,2 C -3,4 C 29,0 km/h (5 Bft)
01.12.2021 10:20 3,8 C 89 % 1005,5 hPa 0,0 l/m 16,7 km/h (3 Bft) SW 217 2,2 C -3,2 C 29,0 km/h (5 Bft)
01.12.2021 10:15 3,8 C 89 % 1005,6 hPa 0,0 l/m 19,4 km/h (3 Bft) S 190 2,2 C -4,5 C 27,4 km/h (5 Bft)
01.12.2021 10:10 3,9 C 88 % 1005,8 hPa 0,0 l/m 19,6 km/h (3 Bft) S-SW 194 2,1 C -4,4 C 33,8 km/h (5 Bft)
01.12.2021 10:05 4,2 C 88 % 1005,8 hPa 0,0 l/m 18,9 km/h (3 Bft) S-SW 197 2,4 C -3,7 C 29,0 km/h (5 Bft)
01.12.2021 10:00 4,3 C 89 % 1006,0 hPa 0,0 l/m 20,4 km/h (4 Bft) S-SW 201 2,7 C -4,2 C 32,2 km/h (5 Bft)
01.12.2021 09:55 4,1 C 89 % 1005,9 hPa 0,0 l/m 15,8 km/h (3 Bft) S 180 2,5 C -2,4 C 24,1 km/h (4 Bft)
01.12.2021 09:50 3,9 C 90 % 1006,1 hPa 0,0 l/m 12,9 km/h (3 Bft) S 188 2,4 C -1,1 C 22,5 km/h (4 Bft)
01.12.2021 09:45 3,7 C 90 % 1006,1 hPa 0,0 l/m 10,5 km/h (2 Bft) S 169 2,2 C 0,3 C 19,3 km/h (3 Bft)
01.12.2021 09:40 3,7 C 90 % 1006,1 hPa 0,0 l/m 8,6 km/h (2 Bft) O-SO 120 2,2 C 1,7 C 17,7 km/h (3 Bft)
01.12.2021 09:35 3,7 C 91 % 1006,2 hPa 0,0 l/m 6,9 km/h (2 Bft) S 180 2,4 C 3,2 C 14,5 km/h (3 Bft)
01.12.2021 09:30 3,4 C 91 % 1006,3 hPa 0,0 l/m 3,9 km/h (1 Bft) S-SO 164 2,1 C 3,4 C 9,7 km/h (2 Bft)
01.12.2021 09:25 3,2 C 91 % 1006,4 hPa 0,0 l/m 7,5 km/h (2 Bft) S-SO 155 1,9 C 2,2 C 12,9 km/h (3 Bft)
01.12.2021 09:20 2,9 C 91 % 1006,4 hPa 0,0 l/m 5,6 km/h (2 Bft) S-SO 150 1,6 C 2,9 C 11,3 km/h (2 Bft)
01.12.2021 09:15 3,0 C 91 % 1006,6 hPa 0,0 l/m 5,6 km/h (2 Bft) SO 131 1,7 C 3,0 C 9,7 km/h (2 Bft)
01.12.2021 09:10 3,2 C 91 % 1006,6 hPa 0,0 l/m 7,0 km/h (2 Bft) S-SO 148 1,9 C 2,6 C 11,3 km/h (2 Bft)
01.12.2021 09:05 3,2 C 91 % 1006,6 hPa 0,0 l/m 8,5 km/h (2 Bft) S 173 1,9 C 1,3 C 17,7 km/h (3 Bft)
01.12.2021 09:00 3,2 C 91 % 1006,8 hPa 0,0 l/m 9,8 km/h (2 Bft) S 188 1,9 C 0,2 C 14,5 km/h (3 Bft)
01.12.2021 08:55 2,9 C 91 % 1007,0 hPa 0,0 l/m 9,3 km/h (2 Bft) S 190 1,6 C 0,3 C 12,9 km/h (3 Bft)
01.12.2021 08:50 2,8 C 91 % 1007,1 hPa 0,0 l/m 9,3 km/h (2 Bft) S 184 1,5 C 0,2 C 14,5 km/h (3 Bft)
01.12.2021 08:45 2,8 C 91 % 1007,1 hPa 0,0 l/m 9,8 km/h (2 Bft) S 187 1,5 C -0,2 C 12,9 km/h (3 Bft)
01.12.2021 08:40 2,8 C 91 % 1007,3 hPa 0,0 l/m 11,0 km/h (2 Bft) S-SW 199 1,5 C -1,1 C 17,7 km/h (3 Bft)
01.12.2021 08:35 2,8 C 91 % 1007,3 hPa 0,0 l/m 13,4 km/h (3 Bft) SW 216 1,5 C -2,7 C 17,7 km/h (3 Bft)
01.12.2021 08:30 2,8 C 91 % 1007,3 hPa 0,0 l/m 12,6 km/h (3 Bft) S-SW 210 1,5 C -2,2 C 17,7 km/h (3 Bft)
01.12.2021 08:25 2,8 C 91 % 1007,2 hPa 0,0 l/m 14,2 km/h (3 Bft) S 188 1,5 C -3,1 C 19,3 km/h (3 Bft)
01.12.2021 08:20 2,8 C 91 % 1007,2 hPa 0,0 l/m 14,7 km/h (3 Bft) S-SW 196 1,5 C -3,4 C 20,9 km/h (4 Bft)
01.12.2021 08:15 2,8 C 91 % 1007,2 hPa 0,0 l/m 14,0 km/h (3 Bft) S-SW 212 1,5 C -3,0 C 24,1 km/h (4 Bft)
01.12.2021 08:10 2,9 C 91 % 1007,4 hPa 0,0 l/m 14,5 km/h (3 Bft) S-SW 195 1,6 C -3,2 C 20,9 km/h (4 Bft)
01.12.2021 08:05 2,9 C 91 % 1007,3 hPa 0,0 l/m 15,6 km/h (3 Bft) S-SW 199 1,6 C -3,8 C 22,5 km/h (4 Bft)
01.12.2021 08:00 2,8 C 91 % 1007,4 hPa 0,0 l/m 16,0 km/h (3 Bft) S-SW 196 1,5 C -4,1 C 20,9 km/h (4 Bft)
01.12.2021 07:55 2,8 C 91 % 1007,5 hPa 0,0 l/m 16,7 km/h (3 Bft) S 169 1,5 C -4,5 C 24,1 km/h (4 Bft)
01.12.2021 07:50 2,8 C 91 % 1007,6 hPa 0,0 l/m 16,9 km/h (3 Bft) S-SW 204 1,5 C -4,6 C 25,7 km/h (4 Bft)
01.12.2021 07:45 2,8 C 91 % 1007,8 hPa 0,0 l/m 16,2 km/h (3 Bft) S-SW 205 1,5 C -4,2 C 24,1 km/h (4 Bft)
01.12.2021 07:40 2,8 C 91 % 1007,9 hPa 0,0 l/m 14,0 km/h (3 Bft) S-SW 210 1,5 C -3,0 C 22,5 km/h (4 Bft)
01.12.2021 07:35 2,8 C 91 % 1008,0 hPa 0,0 l/m 12,4 km/h (2 Bft) S-SW 195 1,5 C -2,0 C 17,7 km/h (3 Bft)
01.12.2021 07:30 2,8 C 91 % 1008,0 hPa 0,0 l/m 11,0 km/h (2 Bft) S 178 1,5 C -1,1 C 16,1 km/h (3 Bft)
01.12.2021 07:25 2,8 C 91 % 1008,0 hPa 0,0 l/m 10,3 km/h (2 Bft) S 190 1,5 C -0,6 C 16,1 km/h (3 Bft)
01.12.2021 07:20 2,8 C 91 % 1008,1 hPa 0,0 l/m 11,0 km/h (2 Bft) S 185 1,5 C -1,1 C 17,7 km/h (3 Bft)
01.12.2021 07:15 2,8 C 91 % 1008,2 hPa 0,0 l/m 9,8 km/h (2 Bft) S 175 1,5 C -0,2 C 12,9 km/h (3 Bft)
01.12.2021 07:10 2,7 C 91 % 1008,3 hPa 0,0 l/m 12,6 km/h (3 Bft) S 178 1,4 C -2,3 C 19,3 km/h (3 Bft)
01.12.2021 07:05 2,7 C 91 % 1008,3 hPa 0,0 l/m 12,6 km/h (3 Bft) S-SW 192 1,4 C -2,3 C 19,3 km/h (3 Bft)
01.12.2021 07:00 2,7 C 91 % 1008,5 hPa 0,0 l/m 13,7 km/h (3 Bft) S-SW 202 1,4 C -3,0 C 20,9 km/h (4 Bft)
01.12.2021 06:55 2,6 C 91 % 1008,6 hPa 0,0 l/m 12,7 km/h (3 Bft) S-SW 206 1,3 C -2,5 C 14,5 km/h (3 Bft)
01.12.2021 06:50 2,6 C 91 % 1008,6 hPa 0,0 l/m 15,8 km/h (3 Bft) S-SW 207 1,3 C -4,3 C 29,0 km/h (5 Bft)
01.12.2021 06:45 2,5 C 91 % 1008,7 hPa 0,0 l/m 14,3 km/h (3 Bft) S-SW 192 1,2 C -3,6 C 24,1 km/h (4 Bft)
01.12.2021 06:40 2,4 C 91 % 1008,7 hPa 0,0 l/m 14,1 km/h (3 Bft) S-SW 193 1,1 C -3,6 C 20,9 km/h (4 Bft)
01.12.2021 06:35 2,4 C 91 % 1008,8 hPa 0,0 l/m 10,9 km/h (2 Bft) S-SW 208 1,1 C -1,5 C 12,9 km/h (3 Bft)
01.12.2021 06:30 2,4 C 91 % 1008,9 hPa 0,0 l/m 11,6 km/h (2 Bft) SW 215 1,1 C -2,0 C 16,1 km/h (3 Bft)
01.12.2021 06:25 2,4 C 91 % 1009,0 hPa 0,0 l/m 10,4 km/h (2 Bft) SW 219 1,1 C -1,1 C 16,1 km/h (3 Bft)
01.12.2021 06:20 2,3 C 91 % 1009,1 hPa 0,0 l/m 10,2 km/h (2 Bft) SW 217 1,0 C -1,1 C 20,9 km/h (4 Bft)
01.12.2021 06:15 2,3 C 91 % 1009,3 hPa 0,0 l/m 8,0 km/h (2 Bft) S-SW 212 1,0 C 0,8 C 12,9 km/h (3 Bft)
01.12.2021 06:10 2,3 C 91 % 1009,4 hPa 0,0 l/m 10,7 km/h (2 Bft) S-SW 192 1,0 C -1,4 C 17,7 km/h (3 Bft)
01.12.2021 06:05 2,3 C 91 % 1009,5 hPa 0,0 l/m 10,9 km/h (2 Bft) S-SW 209 1,0 C -1,6 C 17,7 km/h (3 Bft)
01.12.2021 06:00 2,3 C 91 % 1009,6 hPa 0,0 l/m 10,4 km/h (2 Bft) S 189 1,0 C -1,2 C 14,5 km/h (3 Bft)
01.12.2021 05:55 2,3 C 91 % 1009,7 hPa 0,0 l/m 12,6 km/h (3 Bft) S-SW 192 1,0 C -2,7 C 17,7 km/h (3 Bft)
01.12.2021 05:50 2,3 C 91 % 1009,7 hPa 0,0 l/m 10,9 km/h (2 Bft) S-SW 194 1,0 C -1,6 C 14,5 km/h (3 Bft)
01.12.2021 05:45 2,3 C 91 % 1009,8 hPa 0,0 l/m 12,9 km/h (3 Bft) S-SW 192 1,0 C -2,9 C 17,7 km/h (3 Bft)
01.12.2021 05:40 2,3 C 91 % 1009,8 hPa 0,0 l/m 10,3 km/h (2 Bft) S 190 1,0 C -1,1 C 16,1 km/h (3 Bft)
01.12.2021 05:35 2,3 C 91 % 1009,9 hPa 0,0 l/m 10,4 km/h (2 Bft) S-SW 195 1,0 C -1,2 C 14,5 km/h (3 Bft)
01.12.2021 05:30 2,2 C 91 % 1010,0 hPa 0,0 l/m 11,8 km/h (2 Bft) S 188 0,9 C -2,3 C 19,3 km/h (3 Bft)
01.12.2021 05:25 2,2 C 91 % 1010,1 hPa 0,0 l/m 11,8 km/h (2 Bft) S 173 0,9 C -2,3 C 17,7 km/h (3 Bft)
01.12.2021 05:20 2,2 C 91 % 1010,2 hPa 0,0 l/m 12,9 km/h (3 Bft) S 191 0,9 C -3,1 C 17,7 km/h (3 Bft)
01.12.2021 05:15 2,2 C 91 % 1010,3 hPa 0,0 l/m 11,5 km/h (2 Bft) S-SW 210 0,9 C -2,1 C 17,7 km/h (3 Bft)
01.12.2021 05:10 2,2 C 91 % 1010,3 hPa 0,0 l/m 10,2 km/h (2 Bft) S-SW 197 0,9 C -1,2 C 14,5 km/h (3 Bft)
01.12.2021 05:05 2,2 C 91 % 1010,4 hPa 0,0 l/m 11,0 km/h (2 Bft) S-SW 213 0,9 C -1,8 C 17,7 km/h (3 Bft)
01.12.2021 05:00 2,1 C 91 % 1010,5 hPa 0,0 l/m 12,9 km/h (3 Bft) SW 218 0,8 C -3,2 C 17,7 km/h (3 Bft)
_ Min-Zeit 05:05 14:40 17:20 - 09:30 - - 05:00 04:25 09:30
Minimum _ 2,1 C 87 % 998,7 hPa - 3,9 km/h (1 Bft) - - 0,8 C -6,5 C 9,7 km/h (2 Bft)
_ Max-Zeit 14:20 04:35 05:00 00:40 23:35 - - 16:25 16:55 23:40
Maximum _ 5,8 C 91 % 1010,5 hPa 0,4 l/m 28,4 km/h
SW (5 Bft)
- - 4,0 C 3,8 C 40,2 km/h
SW (6 Bft)
Durchschnitt _ 3,9 C 90 % 1002,9 hPa #2,8 l/m 15,4 km/h (3 Bft) S-SW - 2,4 C -2,2 C 22,6 km/h (4 Bft)